Kahului, Hawaii
Current Conditions -  °F | °C
As of 7:54 AM on Friday 24 Oct 2014 (Local Time) from PHOG Reporting Station
Few Clouds Few Clouds  
Wind Chill: 75°   Ceiling: Unl
Heat Index: 75°   Visibility: 10mi
Dew Point: 68°   Wind: 3mph
Humidity: 79%   Direction: 340°NNW
Pressure: 30.03"   Gusts: NA
Location:  20.89°N, 156.46°W
Report Text: PHOG 241754Z 34003KT 10SM FEW050 24/20 A3003 RMK AO2 SLP174 T02390200 10244 20200 53017 $
Loading
Personal Weather Stations






























Interactive Weather Map
Tropical Storm Tracking
New forecast layout! Learn more

10-Day Weather Forecast

Advertisements
Track Severe Weather on mobile